createdAt,value
2022-11-29T00:00:03.386Z,27.00
2022-11-29T00:02:40.731Z,29.40
2022-11-29T00:05:09.359Z,28.17
2022-11-29T00:07:37.374Z,29.95
2022-11-29T00:10:08.314Z,27.35
2022-11-29T00:12:35.350Z,25.33
2022-11-29T00:15:03.346Z,28.95
2022-11-29T00:17:31.386Z,28.48
2022-11-29T00:19:59.338Z,27.33
2022-11-29T00:22:27.297Z,28.83
2022-11-29T00:24:55.252Z,27.90
2022-11-29T00:27:24.562Z,27.80
2022-11-29T00:32:20.320Z,27.35
2022-11-29T00:34:48.299Z,29.50
2022-11-29T00:37:16.370Z,28.42
2022-11-29T00:39:44.333Z,29.80
2022-11-29T00:42:12.285Z,25.88
2022-11-29T00:44:41.787Z,29.52
2022-11-29T00:47:10.007Z,27.52
2022-11-29T00:49:37.952Z,27.52
2022-11-29T00:52:06.314Z,27.55
2022-11-29T00:54:34.372Z,26.67
2022-11-29T00:57:02.294Z,25.85
2022-11-29T00:59:30.498Z,26.38
2022-11-29T01:01:59.897Z,27.40
2022-11-29T01:04:27.897Z,25.17
2022-11-29T01:06:55.860Z,26.85
2022-11-29T01:09:23.977Z,27.48
2022-11-29T01:11:51.971Z,24.20
2022-11-29T01:14:19.935Z,26.38
2022-11-29T01:16:48.103Z,25.25
2022-11-29T01:19:17.513Z,26.17
2022-11-29T01:24:13.207Z,26.05
2022-11-29T01:26:41.202Z,27.60
2022-11-29T01:29:09.147Z,24.77
2022-11-29T01:31:37.140Z,24.77
2022-11-29T01:34:07.293Z,23.15
2022-11-29T01:36:36.759Z,28.20
2022-11-29T01:39:06.759Z,27.00
2022-11-29T01:41:37.926Z,27.92
2022-11-29T01:44:08.163Z,27.17
2022-11-29T01:46:38.501Z,24.42
2022-11-29T01:49:11.341Z,25.42
2022-11-29T01:51:44.220Z,24.40
2022-11-29T01:54:13.655Z,26.33
2022-11-29T01:56:43.757Z,26.25
2022-11-29T01:59:15.138Z,24.70
2022-11-29T02:01:46.292Z,24.65
2022-11-29T02:04:15.240Z,25.30
2022-11-29T02:06:44.806Z,22.58
2022-11-29T02:09:20.242Z,27.27
2022-11-29T02:12:11.723Z,24.70
2022-11-29T02:14:56.902Z,26.30
2022-11-29T02:17:34.309Z,26.10
2022-11-29T02:20:36.533Z,25.25
2022-11-29T02:23:21.896Z,28.00
2022-11-29T02:26:05.591Z,28.77
2022-11-29T02:29:01.412Z,28.42
2022-11-29T02:32:02.160Z,26.02
2022-11-29T02:34:52.161Z,27.92
2022-11-29T02:37:41.176Z,27.60
2022-11-29T02:40:28.479Z,27.38
2022-11-29T02:43:48.170Z,28.23
2022-11-29T02:46:40.543Z,27.02
2022-11-29T02:49:19.746Z,29.35
2022-11-29T02:54:27.657Z,28.10
2022-11-29T02:57:00.351Z,28.05
2022-11-29T02:59:44.263Z,31.00
2022-11-29T03:02:22.634Z,27.55
2022-11-29T03:04:59.515Z,31.58
2022-11-29T03:07:40.639Z,31.33
2022-11-29T03:10:18.960Z,32.60
2022-11-29T03:12:49.968Z,32.20
2022-11-29T03:15:28.508Z,30.30
2022-11-29T03:18:11.721Z,30.98
2022-11-29T03:20:51.682Z,33.55
2022-11-29T03:23:25.377Z,28.27
2022-11-29T03:25:58.543Z,29.67
2022-11-29T03:28:32.310Z,33.78
2022-11-29T03:31:07.086Z,27.35
2022-11-29T03:33:45.798Z,28.83
2022-11-29T03:36:24.542Z,31.88
2022-11-29T03:38:57.968Z,29.98
2022-11-29T03:41:31.804Z,32.60
2022-11-29T03:44:04.647Z,34.55
2022-11-29T03:46:39.064Z,33.58
2022-11-29T03:49:14.568Z,34.33
2022-11-29T03:51:54.466Z,31.70
2022-11-29T03:54:29.165Z,31.63
2022-11-29T03:56:57.637Z,33.30
2022-11-29T03:59:41.619Z,33.85
2022-11-29T04:02:40.020Z,30.80
2022-11-29T04:05:37.555Z,31.75
2022-11-29T04:08:44.204Z,35.35
2022-11-29T04:11:37.515Z,32.67
2022-11-29T04:14:32.368Z,30.70
2022-11-29T04:17:33.940Z,32.92
2022-11-29T04:20:23.374Z,32.08
2022-11-29T04:23:26.882Z,35.33
2022-11-29T04:26:21.547Z,30.83
2022-11-29T04:29:12.200Z,33.47
2022-11-29T04:32:02.663Z,31.50
2022-11-29T04:35:00.119Z,31.00
2022-11-29T04:37:50.468Z,31.40
2022-11-29T04:40:36.418Z,29.65
2022-11-29T04:43:34.407Z,29.70
2022-11-29T04:46:27.679Z,30.38
2022-11-29T04:49:07.685Z,27.58
2022-11-29T04:51:47.355Z,27.73
2022-11-29T04:54:28.177Z,36.40
2022-11-29T04:57:03.007Z,24.08
2022-11-29T04:59:36.782Z,27.30
2022-11-29T05:02:17.375Z,24.95
2022-11-29T05:04:51.920Z,21.45
2022-11-29T05:07:30.784Z,24.33
2022-11-29T05:10:08.064Z,23.20
2022-11-29T05:12:43.128Z,22.65
2022-11-29T05:15:51.018Z,24.55
2022-11-29T05:18:33.783Z,27.40
2022-11-29T05:21:09.824Z,22.20
2022-11-29T05:23:49.783Z,21.08
2022-11-29T05:26:23.979Z,20.38
2022-11-29T05:29:02.809Z,22.77
2022-11-29T05:31:46.979Z,21.77
2022-11-29T05:34:45.963Z,24.60
2022-11-29T05:37:28.024Z,20.98
2022-11-29T05:40:17.519Z,20.83
2022-11-29T05:43:02.306Z,22.27
2022-11-29T05:45:36.051Z,22.77
2022-11-29T05:48:12.224Z,21.33
2022-11-29T05:50:46.808Z,20.52
2022-11-29T05:53:25.766Z,22.58
2022-11-29T05:56:03.731Z,18.95
2022-11-29T05:58:44.624Z,23.20
2022-11-29T06:01:21.680Z,21.83
2022-11-29T06:03:58.878Z,19.77
2022-11-29T06:06:39.618Z,20.30
2022-11-29T06:09:16.604Z,21.38
2022-11-29T06:11:47.836Z,21.98
2022-11-29T06:14:35.105Z,21.20
2022-11-29T06:17:18.627Z,21.48
2022-11-29T06:20:11.147Z,21.90
2022-11-29T06:23:06.239Z,22.77
2022-11-29T06:25:49.671Z,21.13
2022-11-29T06:28:33.672Z,23.80
2022-11-29T06:31:13.188Z,21.55
2022-11-29T06:33:52.761Z,27.13
2022-11-29T06:36:28.036Z,20.40
2022-11-29T06:38:57.900Z,19.23
2022-11-29T06:41:26.741Z,20.42
2022-11-29T06:43:55.232Z,19.80
2022-11-29T06:46:34.381Z,18.95
2022-11-29T06:51:38.944Z,20.92
2022-11-29T06:54:32.834Z,17.17
2022-11-29T06:57:13.057Z,19.85
2022-11-29T06:59:56.569Z,20.92
2022-11-29T07:02:35.668Z,19.02
2022-11-29T07:05:13.975Z,20.15
2022-11-29T07:07:43.158Z,17.07
2022-11-29T07:10:18.261Z,19.10
2022-11-29T07:12:47.354Z,16.98
2022-11-29T07:15:17.177Z,18.20
2022-11-29T07:17:57.283Z,19.45
2022-11-29T07:20:35.409Z,18.33
2022-11-29T07:23:14.084Z,16.70
2022-11-29T07:25:57.162Z,17.58
2022-11-29T07:28:39.211Z,19.10
2022-11-29T07:31:13.237Z,18.83
2022-11-29T07:33:50.165Z,18.95
2022-11-29T07:36:28.276Z,18.17
2022-11-29T07:39:04.990Z,17.60
2022-11-29T07:41:41.115Z,16.98
2022-11-29T07:44:17.150Z,17.90
2022-11-29T07:46:45.407Z,18.55
2022-11-29T07:49:13.451Z,17.92
2022-11-29T07:51:41.506Z,18.27
2022-11-29T07:54:11.861Z,18.55
2022-11-29T07:56:41.274Z,18.10
2022-11-29T07:59:11.065Z,17.42
2022-11-29T08:01:39.163Z,15.85
2022-11-29T08:04:08.248Z,17.50
2022-11-29T08:06:36.776Z,18.33
2022-11-29T08:09:06.839Z,16.02
2022-11-29T08:11:34.875Z,17.88
2022-11-29T08:14:05.696Z,17.90
2022-11-29T08:16:34.018Z,18.35
2022-11-29T08:19:02.001Z,15.90
2022-11-29T08:21:30.080Z,17.25
2022-11-29T08:23:58.042Z,17.20
2022-11-29T08:26:31.253Z,14.82
2022-11-29T08:28:59.682Z,17.42
2022-11-29T08:31:29.083Z,18.20
2022-11-29T08:33:57.172Z,18.13
2022-11-29T08:36:25.147Z,18.42
2022-11-29T08:39:01.257Z,17.52
2022-11-29T08:41:31.918Z,16.40
2022-11-29T08:43:59.841Z,16.08
2022-11-29T08:46:49.151Z,18.25
2022-11-29T08:49:17.542Z,16.17
2022-11-29T08:51:45.527Z,16.35
2022-11-29T08:54:12.759Z,17.38
2022-11-29T08:59:31.958Z,16.02
2022-11-29T09:02:01.355Z,16.13
2022-11-29T09:04:29.523Z,16.98
2022-11-29T09:06:57.453Z,17.05
2022-11-29T09:09:25.410Z,16.80
2022-11-29T09:11:53.323Z,17.88
2022-11-29T09:14:22.883Z,16.75
2022-11-29T09:16:50.921Z,16.05
2022-11-29T09:19:20.399Z,18.23
2022-11-29T09:21:48.317Z,15.93
2022-11-29T09:24:16.431Z,16.60
2022-11-29T09:26:48.211Z,16.70
2022-11-29T09:29:17.393Z,15.43
2022-11-29T09:34:13.766Z,16.60
2022-11-29T09:36:46.218Z,15.02
2022-11-29T09:39:14.198Z,16.45
2022-11-29T09:41:58.670Z,19.25
2022-11-29T09:44:37.163Z,15.00
2022-11-29T09:47:20.287Z,17.33
2022-11-29T09:49:59.758Z,16.88
2022-11-29T09:52:40.008Z,15.20
2022-11-29T09:55:26.877Z,18.17
2022-11-29T09:57:56.446Z,15.55
2022-11-29T10:00:26.091Z,18.02
2022-11-29T10:03:00.524Z,14.95
2022-11-29T10:05:32.970Z,13.27
2022-11-29T10:08:07.717Z,13.90
2022-11-29T10:10:41.659Z,14.70
2022-11-29T10:13:18.397Z,12.77
2022-11-29T10:15:51.888Z,13.52
2022-11-29T10:18:24.179Z,12.57
2022-11-29T10:20:54.292Z,13.23
2022-11-29T10:23:27.750Z,13.10
2022-11-29T10:25:57.691Z,12.70
2022-11-29T10:28:30.630Z,15.13
2022-11-29T10:31:04.362Z,17.02
2022-11-29T10:33:36.289Z,14.68
2022-11-29T10:36:08.760Z,15.93
2022-11-29T10:38:38.097Z,14.07
2022-11-29T10:41:09.125Z,14.40
2022-11-29T10:43:38.059Z,14.73
2022-11-29T10:46:07.576Z,14.82
2022-11-29T10:48:35.937Z,15.70
2022-11-29T10:51:03.940Z,14.77
2022-11-29T10:53:37.088Z,15.95
2022-11-29T10:56:09.661Z,17.30
2022-11-29T10:58:37.707Z,16.42
2022-11-29T11:01:07.814Z,15.52
2022-11-29T11:03:39.405Z,17.52
2022-11-29T11:06:11.988Z,15.35
2022-11-29T11:08:44.453Z,14.77
2022-11-29T11:11:15.263Z,17.25
2022-11-29T11:13:43.388Z,15.55
2022-11-29T11:16:17.896Z,14.57
2022-11-29T11:18:47.145Z,17.02
2022-11-29T11:23:53.462Z,14.77
2022-11-29T11:26:24.098Z,14.15
2022-11-29T11:28:56.289Z,12.13
2022-11-29T11:31:30.618Z,13.57
2022-11-29T11:33:58.649Z,14.52
2022-11-29T11:36:28.309Z,15.35
2022-11-29T11:38:59.168Z,12.50
2022-11-29T11:41:44.705Z,14.60
2022-11-29T11:44:48.673Z,15.38
2022-11-29T11:47:19.521Z,15.93
2022-11-29T11:49:50.245Z,14.60
2022-11-29T11:52:22.358Z,15.38
2022-11-29T11:54:54.740Z,14.95
2022-11-29T11:57:26.561Z,14.95
2022-11-29T12:00:06.407Z,16.02
2022-11-29T12:02:41.677Z,16.17
2022-11-29T12:05:15.787Z,14.48
2022-11-29T12:10:40.501Z,15.43
2022-11-29T12:13:19.298Z,14.35
2022-11-29T12:15:50.952Z,14.07
2022-11-29T12:18:25.585Z,14.45
2022-11-29T12:20:58.277Z,15.85
2022-11-29T12:23:34.299Z,14.80
2022-11-29T12:26:08.093Z,14.40
2022-11-29T12:28:41.275Z,14.35
2022-11-29T12:31:24.721Z,17.83
2022-11-29T12:34:09.180Z,13.75
2022-11-29T12:36:48.067Z,13.85
2022-11-29T12:39:28.080Z,13.25
2022-11-29T12:42:00.512Z,13.45
2022-11-29T12:44:43.106Z,15.48
2022-11-29T12:47:39.088Z,15.63
2022-11-29T12:50:29.147Z,12.25
2022-11-29T12:53:10.568Z,15.93
2022-11-29T12:55:50.108Z,13.30
2022-11-29T12:58:27.758Z,13.32
2022-11-29T13:01:05.383Z,12.65
2022-11-29T13:03:44.365Z,17.27
2022-11-29T13:06:28.552Z,13.88
2022-11-29T13:09:15.491Z,13.50
2022-11-29T13:11:50.348Z,12.85
2022-11-29T13:17:28.042Z,14.80
2022-11-29T13:20:00.008Z,12.00
2022-11-29T13:22:33.490Z,15.13
2022-11-29T13:25:04.709Z,13.23
2022-11-29T13:27:36.000Z,27.60
2022-11-29T13:30:06.141Z,13.65
2022-11-29T13:32:39.770Z,17.48
2022-11-29T13:35:17.292Z,14.43
2022-11-29T13:37:54.935Z,26.10
2022-11-29T13:40:33.474Z,14.00
2022-11-29T13:43:11.808Z,14.30
2022-11-29T13:45:47.392Z,15.93
2022-11-29T13:48:37.640Z,10.95
2022-11-29T13:51:38.187Z,11.38
2022-11-29T13:54:07.919Z,12.93
2022-11-29T13:56:46.516Z,11.52
2022-11-29T13:59:20.734Z,11.57
2022-11-29T14:01:51.591Z,12.30
2022-11-29T14:04:32.189Z,16.30
2022-11-29T14:07:09.916Z,13.70
2022-11-29T14:09:58.698Z,13.57
2022-11-29T14:12:37.711Z,14.60
2022-11-29T14:15:18.875Z,13.52
2022-11-29T14:17:50.225Z,14.18
2022-11-29T14:21:01.556Z,13.85
2022-11-29T14:23:37.973Z,14.70
2022-11-29T14:26:29.568Z,13.15
2022-11-29T14:28:59.323Z,12.60
2022-11-29T14:31:55.998Z,14.55
2022-11-29T14:34:35.764Z,14.30
2022-11-29T14:37:16.967Z,14.48
2022-11-29T14:39:47.875Z,14.07
2022-11-29T14:42:18.758Z,14.45
2022-11-29T14:44:52.095Z,18.88
2022-11-29T14:47:29.753Z,16.17
2022-11-29T14:50:00.167Z,16.58
2022-11-29T14:52:32.481Z,15.65
2022-11-29T14:55:04.413Z,14.27
2022-11-29T14:57:53.982Z,16.35
2022-11-29T15:00:23.544Z,16.23
2022-11-29T15:02:54.178Z,18.00
2022-11-29T15:05:29.054Z,15.88
2022-11-29T15:08:10.466Z,17.63
2022-11-29T15:10:42.320Z,18.52
2022-11-29T15:13:14.004Z,17.25
2022-11-29T15:16:08.876Z,17.88
2022-11-29T15:18:59.771Z,17.27
2022-11-29T15:21:36.560Z,16.45
2022-11-29T15:24:13.026Z,17.52
2022-11-29T15:26:55.290Z,17.83
2022-11-29T15:29:23.607Z,19.05
2022-11-29T15:31:55.268Z,16.92
2022-11-29T15:34:30.600Z,16.45
2022-11-29T15:36:58.670Z,18.27
2022-11-29T15:39:31.347Z,17.88
2022-11-29T15:42:04.285Z,16.85
2022-11-29T15:44:33.819Z,16.95
2022-11-29T15:47:22.156Z,20.10
2022-11-29T15:49:50.363Z,18.45
2022-11-29T15:52:25.461Z,20.80
2022-11-29T15:55:01.772Z,17.65
2022-11-29T15:57:35.543Z,17.63
2022-11-29T16:00:06.291Z,16.50
2022-11-29T16:02:37.169Z,18.45
2022-11-29T16:05:15.018Z,18.20
2022-11-29T16:07:44.373Z,19.65
2022-11-29T16:12:53.989Z,20.58
2022-11-29T16:15:31.188Z,18.75
2022-11-29T16:18:04.686Z,18.25
2022-11-29T16:20:32.989Z,20.55
2022-11-29T16:23:14.436Z,15.55
2022-11-29T16:25:58.820Z,17.23
2022-11-29T16:28:31.194Z,17.58
2022-11-29T16:31:00.139Z,15.93
2022-11-29T16:33:28.588Z,17.17
2022-11-29T16:36:05.879Z,17.38
2022-11-29T16:38:34.291Z,17.73
2022-11-29T16:41:08.776Z,17.27
2022-11-29T16:43:53.662Z,16.98
2022-11-29T16:46:33.117Z,17.50
2022-11-29T16:49:03.733Z,16.13
2022-11-29T16:51:39.815Z,16.35
2022-11-29T16:54:23.332Z,19.05
2022-11-29T16:56:54.053Z,19.42
2022-11-29T16:59:27.920Z,18.13
2022-11-29T17:01:57.139Z,17.73
2022-11-29T17:04:25.513Z,18.63
2022-11-29T17:06:54.611Z,17.58
2022-11-29T17:09:27.977Z,15.25
2022-11-29T17:11:59.802Z,16.75
2022-11-29T17:14:28.536Z,15.98
2022-11-29T17:16:56.892Z,15.77
2022-11-29T17:19:25.401Z,14.52
2022-11-29T17:21:53.679Z,15.50
2022-11-29T17:24:23.804Z,17.30
2022-11-29T17:26:52.210Z,16.05
2022-11-29T17:29:21.509Z,14.47
2022-11-29T17:31:50.708Z,13.88
2022-11-29T17:36:46.735Z,13.60
2022-11-29T17:39:15.800Z,13.77
2022-11-29T17:41:43.741Z,14.93
2022-11-29T17:44:11.696Z,17.50
2022-11-29T17:46:41.262Z,15.02
2022-11-29T17:49:10.660Z,16.55
2022-11-29T17:51:51.802Z,13.23
2022-11-29T17:54:21.093Z,13.43
2022-11-29T17:56:49.368Z,16.50
2022-11-29T17:59:17.428Z,15.00
2022-11-29T18:01:48.148Z,14.27
2022-11-29T18:04:16.530Z,12.98
2022-11-29T18:06:49.516Z,13.55
2022-11-29T18:09:18.866Z,16.45
2022-11-29T18:11:49.286Z,13.77
2022-11-29T18:14:19.778Z,14.65
2022-11-29T18:16:49.247Z,15.68
2022-11-29T18:19:19.832Z,13.52
2022-11-29T18:21:47.950Z,16.13
2022-11-29T18:24:16.257Z,20.20
2022-11-29T18:26:44.704Z,15.60
2022-11-29T18:29:12.726Z,23.70
2022-11-29T18:31:42.382Z,16.10
2022-11-29T18:34:14.152Z,15.68
2022-11-29T18:36:44.297Z,14.45
2022-11-29T18:39:15.131Z,13.05
2022-11-29T18:41:44.599Z,13.00
2022-11-29T18:44:14.346Z,15.18
2022-11-29T18:46:44.015Z,12.65
2022-11-29T18:49:15.203Z,13.63
2022-11-29T18:51:45.000Z,14.15
2022-11-29T18:54:13.855Z,13.32
2022-11-29T18:56:42.348Z,14.20
2022-11-29T18:59:12.333Z,12.68
2022-11-29T19:01:42.814Z,13.15
2022-11-29T19:04:14.780Z,13.15
2022-11-29T19:06:43.450Z,13.80
2022-11-29T19:09:14.949Z,13.32
2022-11-29T19:11:43.359Z,12.40
2022-11-29T19:14:13.102Z,13.37
2022-11-29T19:16:43.210Z,13.40
2022-11-29T19:19:11.333Z,13.93
2022-11-29T19:21:41.419Z,15.02
2022-11-29T19:24:14.998Z,15.63
2022-11-29T19:26:44.849Z,13.75
2022-11-29T19:29:14.050Z,13.52
2022-11-29T19:31:42.640Z,15.50
2022-11-29T19:34:10.916Z,13.00
2022-11-29T19:36:43.311Z,13.82
2022-11-29T19:39:13.216Z,13.50
2022-11-29T19:46:48.739Z,14.82
2022-11-29T19:49:19.327Z,13.63
2022-11-29T19:52:02.213Z,17.13
2022-11-29T19:54:30.125Z,18.35
2022-11-29T19:57:04.076Z,14.75
2022-11-29T19:59:33.436Z,13.18
2022-11-29T20:02:05.070Z,14.43
2022-11-29T20:04:37.606Z,13.98
2022-11-29T20:07:06.935Z,15.52
2022-11-29T20:12:02.547Z,13.23
2022-11-29T20:14:30.470Z,12.95
2022-11-29T20:16:58.356Z,16.05
2022-11-29T20:19:28.064Z,13.18
2022-11-29T20:21:56.060Z,13.40
2022-11-29T20:24:32.188Z,14.43
2022-11-29T20:27:02.863Z,13.95
2022-11-29T20:29:32.787Z,14.30
2022-11-29T20:32:00.730Z,12.95
2022-11-29T20:34:29.124Z,13.95
2022-11-29T20:37:12.930Z,14.17
2022-11-29T20:39:48.112Z,12.75
2022-11-29T20:42:44.396Z,14.00
2022-11-29T20:45:14.834Z,13.27
2022-11-29T20:47:50.224Z,13.85
2022-11-29T20:50:23.259Z,12.20
2022-11-29T20:53:03.500Z,15.32
2022-11-29T20:55:32.807Z,13.02
2022-11-29T21:00:28.454Z,12.55
2022-11-29T21:02:56.407Z,12.32
2022-11-29T21:05:24.395Z,12.52
2022-11-29T21:07:52.707Z,14.80
2022-11-29T21:10:21.917Z,15.43
2022-11-29T21:12:51.970Z,12.40
2022-11-29T21:15:20.827Z,11.93
2022-11-29T21:17:49.401Z,11.10
2022-11-29T21:20:22.445Z,13.00
2022-11-29T21:22:57.994Z,13.35
2022-11-29T21:25:37.572Z,12.13
2022-11-29T21:28:13.067Z,14.35
2022-11-29T21:30:42.229Z,12.82
2022-11-29T21:33:11.266Z,13.18
2022-11-29T21:35:40.979Z,12.43
2022-11-29T21:38:14.669Z,13.35
2022-11-29T21:40:42.639Z,14.82
2022-11-29T21:43:11.959Z,13.45
2022-11-29T21:48:28.619Z,12.95
2022-11-29T21:50:57.661Z,13.27
2022-11-29T21:53:25.625Z,13.75
2022-11-29T21:55:57.863Z,12.30
2022-11-29T21:58:29.261Z,11.95
2022-11-29T22:00:57.263Z,12.25
2022-11-29T22:03:25.173Z,13.13
2022-11-29T22:05:53.117Z,14.65
2022-11-29T22:08:21.057Z,13.00
2022-11-29T22:10:49.009Z,13.30
2022-11-29T22:13:16.952Z,12.75
2022-11-29T22:15:46.305Z,12.68
2022-11-29T22:18:14.242Z,13.18
2022-11-29T22:20:42.191Z,13.80
2022-11-29T22:23:10.147Z,13.85
2022-11-29T22:25:38.098Z,13.50
2022-11-29T22:28:06.126Z,13.60
2022-11-29T22:30:35.860Z,12.75
2022-11-29T22:33:10.289Z,14.45
2022-11-29T22:35:44.019Z,12.73
2022-11-29T22:38:11.976Z,12.45
2022-11-29T22:40:40.573Z,13.60
2022-11-29T22:43:08.527Z,12.50
2022-11-29T22:45:36.479Z,12.98
2022-11-29T22:48:06.183Z,12.35
2022-11-29T22:50:34.209Z,13.68
2022-11-29T22:53:02.205Z,11.18
2022-11-29T22:55:30.207Z,12.88
2022-11-29T22:57:58.179Z,11.98
2022-11-29T23:00:26.258Z,10.75
2022-11-29T23:02:57.628Z,11.23
2022-11-29T23:05:32.128Z,10.77
2022-11-29T23:08:00.687Z,10.35
2022-11-29T23:10:28.733Z,9.50
2022-11-29T23:12:56.655Z,9.40
2022-11-29T23:15:24.717Z,9.70
2022-11-29T23:17:53.355Z,9.82
2022-11-29T23:20:21.371Z,8.38
2022-11-29T23:22:50.786Z,9.25
2022-11-29T23:25:18.958Z,11.13
2022-11-29T23:27:46.903Z,8.70
2022-11-29T23:30:15.545Z,8.40
2022-11-29T23:32:43.518Z,9.00
2022-11-29T23:35:11.433Z,8.90
2022-11-29T23:37:40.571Z,7.18
2022-11-29T23:40:11.418Z,7.55
2022-11-29T23:42:42.423Z,9.00
2022-11-29T23:45:12.994Z,11.75
2022-11-29T23:47:40.961Z,8.88
2022-11-29T23:50:10.715Z,9.57
2022-11-29T23:52:39.039Z,8.90
2022-11-29T23:55:07.747Z,8.27
2022-11-29T23:57:37.008Z,9.07
